Pays
Station

 

Conditions  météo  pour  Minot Air Force Base  -  Etats-Unis    Etats-Unis

  
27 °C
    
 
 

METAR pour Minot Air Force Base :

KMIB 161956Z AUTO 05007KT 10SM CLR 27/12 A3003 RMK AO2 SLP170 T02720116 $

 

Voici le bulletin pour Minot Air Force Base - Etats-Unis.
 
Le bulletin a été fait il y a 9 minutes, à 19:56 UTC .
Le vent soufflait à la vitesse de 3.6 mètres par seconde de Nord-est (050°).
 
La température était de 27 °C, avec un point de rosée à 12 °C.
La température ressentie était de 27 °C.
 
La pression atmosphérique était de 1017 hPa.
L'humidité relative était de 39.3%.
 
Le ciel était clair.
 
La visibilité globale était de 16.1 kilomètres.
 

 
 
 

Pays :   A   B   C   D   E   F   G   H   I   J   K   L   M   N   O   P   Q   R   S   T   U   V   W   Y   Z

 

Partenaires :  Info Météo avec Met'info
Météo Marine avec MeteoMarine.net
Infos Site  |  Infos Légales  |  Crédits  |  Confidentialité
Contactez-nous  |  Ajouter aux favoris
© 2013-2018 METAR - Tous droits réservés